• Back
  •  
  • Position of Reservoir Gates
S.No.
No. of opened gates
Position of opening (In m)
Reporting Date
Reporting Time
Discharge in Cumecs
Discharge in Cusecs
Actual date and time of Gate opening
1
2
3
4
5
6
7
8
1 0 0.79 02/09/2020 12:00:00 AM 14 494.41 01/09/2020 12.00PM Wase Weir
2 7 1.35 15/08/2016 5:00:00 AM 1576 55656.44
3 0 0 15/08/2016 8:00:00 AM 0 0
4 0 0.05 26/08/2019 1:00:00 PM 2 70.63
5 0 0.13 26/08/2019 4:00:00 PM 0.12 4.24 discharge passes over waste weir is 4.0cusec
6 0 0.14 27/08/2019 12:05:00 AM 0.15 5.3
7 0 0.12 27/08/2019 8:00:00 AM 2.18 76.99 Discharge passes over waste weir is 2.18 cumec
8 0 0.12 27/08/2019 10:30:00 AM 61.71 2179.29
9 0 0.2 28/08/2019 11:30:00 AM 5.02 177.28
10 0 0.13 28/08/2019 12:01:00 AM 2.18 76.99 discharge passes over waste weir is 2.18cumec
11 0 0.2 29/08/2019 12:01:00 AM 5.02 177.28 discharge passes over waste weir is 5.02cumec
12 0 0.31 30/08/2019 8:00:00 AM 7.73 272.98
13 0 0.31 31/08/2019 12:01:00 AM 7.73 272.98
14 0 0.31 01/09/2019 12:01:00 AM 7.73 272.98
15 0 0.3 02/09/2019 7:00:00 AM 7.73 272.98
16 0 0.4 02/09/2019 8:00:00 AM 14.83 523.72
17 0 0.41 03/09/2019 8:00:00 AM 15.36 542.44
18 0 0.45 04/09/2019 8:00:00 AM 16.49 582.34
19 0 0.55 05/09/2019 8:00:00 AM 19.13 675.58
20 0 0.6 06/09/2019 8:00:00 AM 21.87 772.34
21 0 0.6 07/09/2019 12:01:00 AM 21.87 772.34
22 0 0.63 07/09/2019 12:15:00 PM 23.19 818.95
23 0 0.69 08/09/2019 8:00:00 AM 26 918.19
24 0 0.69 09/09/2019 3:00:00 AM 26 918.19
25 0 0.96 09/09/2019 12:30:00 PM 43.44 1534.08
26 0 1.04 10/09/2019 8:00:00 AM 45.6 1610.36
27 0 1.04 11/09/2019 6:00:00 AM 45.6 1610.36
28 0 1.01 11/09/2019 8:00:00 AM 50.63 1788
29 0 1.06 13/09/2019 3:07:00 AM 50.64 1788.35
30 0 1.06 12/09/2019 8:00:00 AM 50.64 1788.35
31 0 1.07 13/09/2019 12:00:00 PM 50.62 1787.65
32 0 1.04 14/09/2019 12:00:00 PM 48.11 1699
33 0 1.07 14/09/2019 12:01:00 AM 50.62 1787.65
34 0 1.04 15/09/2019 8:00:00 AM 48.11 1699
35 0 1.04 16/09/2019 12:01:00 AM 48.11 1699
36 0 1.04 17/09/2019 12:01:00 AM 48.11 1699
37 0 0.97 20/09/2019 12:01:00 AM 44.97 1588.12
38 0 0.99 18/09/2019 9:00:00 AM 45.31 1600.12
39 0 1.04 18/09/2019 12:01:00 AM 48.11 1699
40 0 0.97 19/09/2019 12:00:00 PM 44.97 1588.12
41 0 0.97 20/09/2019 8:00:00 AM 44.97 1588.12
42 0 0.97 21/09/2019 12:01:00 AM 44.97 1588.12
43 0 0.97 21/09/2019 9:00:00 AM 44.61 1575.4
44 0 0.94 24/09/2019 12:01:00 AM 41.8 1476.17
45 0 0.94 22/09/2019 10:00:00 AM 41.5 1465.57
46 0 0.91 28/09/2019 4:00:00 AM 40.19 1419.31
47 0 0.88 28/09/2019 10:00:00 AM 40.23 1420.72
48 0 0.94 23/09/2019 1:21:00 AM 41.5 1465.57
49 0 0.94 23/09/2019 4:00:00 PM 41.8 1476.17
50 0 0.95 25/09/2019 8:00:00 AM 44.93 1586.7
51 0 0.93 26/09/2019 12:01:00 AM 41.8 1476.17
52 0 0.93 27/09/2019 12:01:00 AM 41.8 1476.17
53 0 0.91 27/09/2019 12:00:00 PM 40.19 1419.31
54 0 0.88 29/09/2019 12:10:00 AM 40.23 1420.72
55 0 1 29/09/2019 11:00:00 AM 86 3037.09
56 0 0.75 01/10/2019 12:00:00 PM 28.88 1019.9
57 0 0.83 30/09/2019 11:00:00 AM 35 1236.02
58 0 0.75 01/10/2019 8:00:00 AM 30.6 1080.64
59 0 0.75 02/10/2019 10:00:00 AM 30.6 1080.64
60 0 0.45 06/10/2019 9:00:00 AM 16.89 596.47
61 0 0.35 14/10/2019 11:00:00 AM 11.71 413.54
62 0 0.71 03/10/2019 12:00:00 PM 27.5 971.16
63 0 0.68 04/10/2019 12:01:00 AM 27.1 957.04
64 0 0.7 04/10/2019 12:00:00 PM 27.5 971.16
65 0 0.45 09/10/2019 8:00:00 AM 14.69 518.78
66 0 0.54 06/10/2019 12:01:00 AM 20 706.3
67 0 0.65 05/10/2019 12:01:00 AM 26 918.19
68 0 0.43 10/10/2019 10:00:00 AM 15.63 551.97
69 0 0.37 13/10/2019 11:00:00 AM 13.71 484.17
70 0 0.6 05/10/2019 10:30:00 AM 20.43 721.49
71 0 0.4 12/10/2019 11:00:00 AM 14.76 521.25
72 0 0.45 08/10/2019 4:00:00 PM 16.89 596.47
73 0 0.45 08/10/2019 4:00:00 PM 16.89 596.47
74 0 0.37 13/10/2019 8:00:00 PM 13.71 484.17
75 0 0.45 08/10/2019 10:00:00 AM 16.89 596.47
76 0 0.45 10/10/2019 7:00:00 AM 14.69 518.78
77 0 0.4 09/10/2019 12:01:00 AM 16 565.04
78 0 0.35 15/10/2019 10:00:00 AM 11.71 413.54
Powered by © Water Resources Department (MP). All Rights Reserved.